Time;durP1;ratioP1;P1;durP2;ratioP2;P2;SDS_P1;SDS_P2;PMS_P1;PMS_P2;Temp;Humidity;BMP_temperature;BMP_pressure;BME280_temperature;BME280_humidity;BME280_pressure;Samples;Min_cycle;Max_cycle;Signal;HPM_P1;HPM_P2
2024/02/29 00:00:09;;;;;;;36.47;18.20;;;5.30;68.00;;;;;;5052269;28;20409;-75
2024/02/29 00:02:35;;;;;;;37.40;19.05;;;5.30;67.90;;;;;;5062965;28;20378;-74
2024/02/29 00:05:00;;;;;;;36.10;18.10;;;5.20;69.20;;;;;;5066419;28;20443;-75
2024/02/29 00:07:26;;;;;;;37.03;18.60;;;5.20;67.40;;;;;;5067864;28;20413;-74
2024/02/29 00:09:52;;;;;;;35.37;17.50;;;5.30;67.00;;;;;;5062482;28;20447;-74
2024/02/29 00:12:17;;;;;;;35.20;17.08;;;5.30;66.30;;;;;;5054823;28;20392;-75
2024/02/29 00:14:43;;;;;;;34.20;18.07;;;5.30;66.50;;;;;;5034622;28;20493;-73
2024/02/29 00:17:10;;;;;;;31.17;15.77;;;5.20;67.10;;;;;;5054290;28;20385;-76
2024/02/29 00:19:36;;;;;;;33.83;16.52;;;5.30;66.10;;;;;;5055188;28;20448;-75
2024/02/29 00:22:02;;;;;;;30.20;16.50;;;5.20;65.50;;;;;;5054049;28;20393;-75
2024/02/29 00:24:28;;;;;;;31.87;16.50;;;5.20;66.00;;;;;;5052049;28;20602;-75
2024/02/29 00:26:53;;;;;;;32.95;17.02;;;5.20;66.00;;;;;;5036231;28;20381;-75
2024/02/29 00:29:19;;;;;;;32.58;15.95;;;5.20;66.20;;;;;;5053383;28;20926;-75
2024/02/29 00:31:45;;;;;;;26.98;15.05;;;5.20;66.00;;;;;;5053016;28;20393;-75
2024/02/29 00:34:11;;;;;;;30.70;15.17;;;5.20;65.00;;;;;;5052862;28;20451;-74
2024/02/29 00:36:37;;;;;;;27.40;15.70;;;5.20;63.80;;;;;;5051076;28;20974;-75
2024/02/29 00:39:03;;;;;;;30.10;15.50;;;5.20;64.30;;;;;;5050964;28;20424;-75
2024/02/29 00:41:29;;;;;;;29.75;15.35;;;5.20;63.70;;;;;;5033145;28;20465;-76
2024/02/29 00:43:55;;;;;;;30.80;15.40;;;5.20;63.70;;;;;;5051054;28;20386;-75
2024/02/29 00:46:22;;;;;;;27.63;14.60;;;5.20;64.50;;;;;;5050839;28;20396;-75
2024/02/29 00:48:47;;;;;;;27.00;14.35;;;5.20;64.30;;;;;;5050910;28;20444;-75
2024/02/29 00:51:13;;;;;;;32.15;14.60;;;5.10;62.80;;;;;;5050692;28;20382;-74
2024/02/29 00:53:38;;;;;;;27.20;14.93;;;5.10;63.50;;;;;;5051063;28;20958;-74
2024/02/29 00:56:04;;;;;;;27.40;14.03;;;5.20;63.20;;;;;;5050810;28;20381;-74
2024/02/29 00:58:30;;;;;;;26.00;14.43;;;5.20;63.20;;;;;;5050907;28;20439;-74
2024/02/29 01:00:56;;;;;;;27.75;14.70;;;5.20;64.20;;;;;;5051111;28;20409;-74
2024/02/29 01:03:22;;;;;;;26.58;13.95;;;5.20;64.50;;;;;;5050873;28;20385;-75
2024/02/29 01:05:47;;;;;;;30.25;15.00;;;5.10;62.50;;;;;;5050809;28;20459;-75
2024/02/29 01:08:13;;;;;;;30.83;15.00;;;5.20;60.90;;;;;;5050726;28;20381;-75
2024/02/29 01:10:39;;;;;;;25.90;13.13;;;5.20;61.90;;;;;;5032740;28;20393;-75
2024/02/29 01:13:05;;;;;;;26.25;13.35;;;5.20;61.30;;;;;;5050876;28;20386;-74
2024/02/29 01:15:30;;;;;;;25.63;12.93;;;5.20;61.50;;;;;;5050519;28;20459;-75
2024/02/29 01:17:56;;;;;;;28.47;15.27;;;5.10;60.00;;;;;;5050916;28;20872;-75
2024/02/29 01:20:22;;;;;;;24.60;13.80;;;5.20;60.30;;;;;;5050898;28;20401;-76
2024/02/29 01:22:47;;;;;;;26.40;13.60;;;5.20;60.10;;;;;;5050973;28;20471;-75
2024/02/29 01:25:13;;;;;;;26.77;12.93;;;5.20;59.20;;;;;;5051244;28;20382;-75
2024/02/29 01:27:38;;;;;;;25.90;13.65;;;5.20;59.40;;;;;;5050849;28;20392;-74
2024/02/29 01:30:05;;;;;;;23.20;12.63;;;5.10;59.30;;;;;;5050910;28;20756;-75
2024/02/29 01:32:30;;;;;;;25.30;12.87;;;5.10;59.20;;;;;;5051318;28;20385;-75
2024/02/29 01:34:56;;;;;;;23.77;12.03;;;5.10;59.50;;;;;;5033256;28;20443;-75
2024/02/29 01:37:21;;;;;;;27.33;13.20;;;5.10;58.80;;;;;;5054742;28;20389;-74
2024/02/29 01:39:47;;;;;;;24.52;12.80;;;5.10;57.80;;;;;;5054075;28;20451;-75
2024/02/29 01:42:13;;;;;;;28.73;13.93;;;5.10;58.00;;;;;;5054191;28;20797;-75
2024/02/29 01:44:55;;;;;;;26.17;13.50;;;5.10;58.10;;;;;;5054346;28;20431;-75
2024/02/29 01:47:25;;;;;;;26.30;12.95;;;5.10;58.40;;;;;;5054363;28;20396;-75
2024/02/29 01:49:53;;;;;;;24.13;13.05;;;5.10;59.10;;;;;;5054210;28;20386;-75
2024/02/29 01:52:21;;;;;;;23.30;12.13;;;5.10;58.70;;;;;;5053974;28;20385;-75
2024/02/29 01:54:47;;;;;;;31.30;13.25;;;5.10;57.00;;;;;;5054157;28;20397;-76
2024/02/29 01:57:13;;;;;;;29.10;14.00;;;5.10;57.10;;;;;;5054057;28;20472;-75
2024/02/29 01:59:39;;;;;;;26.30;13.45;;;5.10;56.80;;;;;;5054257;28;20899;-73
2024/02/29 02:02:05;;;;;;;26.73;12.40;;;5.10;56.80;;;;;;5036458;28;20385;-74
2024/02/29 02:04:31;;;;;;;23.85;12.32;;;5.10;57.40;;;;;;5054197;28;20385;-74
2024/02/29 02:06:59;;;;;;;24.80;12.60;;;5.10;56.20;;;;;;5054639;28;20382;-74
2024/02/29 02:09:25;;;;;;;28.03;13.73;;;5.20;55.80;;;;;;5055377;28;20708;-74
2024/02/29 02:11:51;;;;;;;24.75;12.80;;;5.00;56.60;;;;;;5055233;28;20412;-74
2024/02/29 02:14:17;;;;;;;30.03;13.97;;;5.00;57.30;;;;;;5055010;28;20394;-75
2024/02/29 02:16:43;;;;;;;22.77;13.00;;;5.10;57.90;;;;;;5037574;28;20380;-75
2024/02/29 02:19:11;;;;;;;30.00;13.70;;;5.10;56.70;;;;;;5064506;28;20426;-75
2024/02/29 02:21:37;;;;;;;26.75;12.73;;;5.00;56.10;;;;;;5066455;28;20400;-75
2024/02/29 02:24:02;;;;;;;29.00;13.63;;;5.00;57.00;;;;;;5064820;28;20394;-75
2024/02/29 02:26:28;;;;;;;29.67;13.40;;;5.00;57.10;;;;;;5068429;28;20382;-73
2024/02/29 02:28:53;;;;;;;27.90;12.67;;;5.00;56.90;;;;;;5068406;28;20480;-75
2024/02/29 02:31:19;;;;;;;27.60;14.33;;;5.00;56.00;;;;;;5062060;28;20396;-74
2024/02/29 02:33:45;;;;;;;30.40;13.90;;;5.00;56.60;;;;;;5061121;28;20393;-75
2024/02/29 02:36:10;;;;;;;27.87;14.10;;;5.00;56.70;;;;;;5058375;28;20539;-76
2024/02/29 02:38:36;;;;;;;28.43;13.57;;;5.00;56.90;;;;;;5055937;28;20401;-75
2024/02/29 02:41:02;;;;;;;25.98;13.27;;;5.00;56.80;;;;;;5057888;28;20412;-75
2024/02/29 02:43:27;;;;;;;30.65;14.75;;;5.10;56.40;;;;;;5058077;28;20389;-75
2024/02/29 02:45:53;;;;;;;27.60;14.15;;;5.10;56.00;;;;;;5056512;28;20468;-75
2024/02/29 02:48:19;;;;;;;27.63;14.10;;;5.10;57.10;;;;;;5056553;28;20378;-73
2024/02/29 02:50:44;;;;;;;28.77;13.40;;;5.10;55.50;;;;;;5038619;28;20393;-76
2024/02/29 02:53:10;;;;;;;29.37;14.20;;;5.10;55.90;;;;;;5041524;28;20459;-74
2024/02/29 02:55:35;;;;;;;27.87;14.43;;;5.10;54.90;;;;;;5045216;28;20915;-73
2024/02/29 02:58:01;;;;;;;28.90;14.30;;;5.10;54.70;;;;;;5064646;28;20400;-75
2024/02/29 03:00:26;;;;;;;26.75;14.10;;;5.00;54.80;;;;;;5066084;28;20480;-75
2024/02/29 03:02:52;;;;;;;28.00;14.75;;;5.00;55.60;;;;;;5055004;28;20382;-74
2024/02/29 03:05:20;;;;;;;30.00;14.30;;;5.00;55.90;;;;;;5053116;28;20385;-75
2024/02/29 03:07:45;;;;;;;28.80;14.55;;;5.00;55.50;;;;;;5052894;28;20383;-73
2024/02/29 03:10:11;;;;;;;24.03;13.63;;;5.00;55.80;;;;;;5052861;28;20496;-75
2024/02/29 03:12:37;;;;;;;31.77;15.30;;;5.00;56.00;;;;;;5052644;28;20397;-75
2024/02/29 03:15:05;;;;;;;27.38;14.55;;;5.00;57.10;;;;;;5052487;28;20405;-75
2024/02/29 03:17:30;;;;;;;28.38;14.48;;;5.00;56.80;;;;;;5052119;28;20394;-75
2024/02/29 03:19:56;;;;;;;28.45;15.57;;;5.00;57.10;;;;;;5052348;28;20737;-74
2024/02/29 03:22:21;;;;;;;29.30;14.50;;;5.00;55.60;;;;;;5052268;28;20411;-76
2024/02/29 03:24:47;;;;;;;30.20;14.97;;;5.10;54.80;;;;;;5034072;28;20825;-74
2024/02/29 03:27:13;;;;;;;32.13;14.97;;;5.10;55.70;;;;;;5051900;28;20392;-74
2024/02/29 03:29:39;;;;;;;30.30;14.70;;;5.00;54.80;;;;;;5052916;28;20404;-76
2024/02/29 03:32:05;;;;;;;28.00;13.75;;;5.00;54.80;;;;;;5052993;28;20442;-75
2024/02/29 03:34:30;;;;;;;29.85;15.05;;;4.90;54.60;;;;;;5052419;28;20457;-75
2024/02/29 03:36:56;;;;;;;31.03;14.63;;;5.00;54.40;;;;;;5053775;28;20441;-75
2024/02/29 03:39:22;;;;;;;25.60;14.25;;;5.00;54.60;;;;;;5052636;28;20381;-75
2024/02/29 03:41:47;;;;;;;34.45;15.00;;;5.00;54.60;;;;;;5034433;28;20933;-73
2024/02/29 03:44:13;;;;;;;32.40;15.85;;;5.00;54.70;;;;;;5052516;28;20465;-75
2024/02/29 03:46:39;;;;;;;29.60;14.55;;;4.90;55.20;;;;;;5052440;28;20381;-75
2024/02/29 03:49:04;;;;;;;30.35;15.25;;;4.90;55.30;;;;;;5052513;28;20397;-74
2024/02/29 03:51:30;;;;;;;30.40;14.48;;;5.00;53.70;;;;;;5034599;28;20912;-75
2024/02/29 03:53:56;;;;;;;29.10;15.32;;;4.90;54.10;;;;;;5051968;28;20755;-76
2024/02/29 03:56:22;;;;;;;31.05;15.77;;;4.90;54.00;;;;;;5051781;28;20393;-75
2024/02/29 03:58:47;;;;;;;33.47;15.98;;;4.90;54.40;;;;;;5051170;28;20392;-75
2024/02/29 04:01:13;;;;;;;30.88;14.23;;;4.80;54.10;;;;;;5052149;28;20772;-74
2024/02/29 04:03:39;;;;;;;35.95;16.50;;;4.80;55.60;;;;;;5052313;28;20381;-75
2024/02/29 04:06:08;;;;;;;32.25;15.88;;;4.80;55.20;;;;;;5052053;28;20397;-76
2024/02/29 04:08:34;;;;;;;29.48;15.20;;;4.90;54.00;;;;;;5055502;28;20381;-75
2024/02/29 04:11:00;;;;;;;32.70;15.65;;;4.90;54.20;;;;;;5053112;28;20385;-76
2024/02/29 04:13:26;;;;;;;31.45;15.90;;;4.80;54.10;;;;;;5053484;28;20392;-75
2024/02/29 04:15:51;;;;;;;31.38;16.15;;;4.80;54.00;;;;;;5053902;28;20396;-75
2024/02/29 04:18:17;;;;;;;32.67;16.00;;;4.80;53.20;;;;;;5052148;28;20389;-75
2024/02/29 04:20:44;;;;;;;37.10;16.95;;;4.80;53.50;;;;;;5051466;28;20464;-75
2024/02/29 04:23:09;;;;;;;33.40;15.98;;;4.90;53.40;;;;;;5051882;28;20377;-75
2024/02/29 04:25:35;;;;;;;32.53;15.73;;;4.80;53.00;;;;;;5033638;28;20388;-75
2024/02/29 04:28:01;;;;;;;30.58;14.88;;;4.80;53.60;;;;;;5051666;28;20388;-76
2024/02/29 04:30:27;;;;;;;33.88;15.88;;;4.90;54.20;;;;;;5051540;28;20385;-74
2024/02/29 04:32:53;;;;;;;30.52;14.05;;;4.90;54.30;;;;;;5051403;28;20389;-76
2024/02/29 04:35:18;;;;;;;29.55;15.20;;;4.90;52.30;;;;;;5051219;28;20385;-74
2024/02/29 04:37:44;;;;;;;29.65;14.30;;;4.90;52.70;;;;;;5052814;28;20394;-75
2024/02/29 04:40:12;;;;;;;31.55;15.25;;;4.80;52.70;;;;;;5051705;28;20820;-75
2024/02/29 04:42:39;;;;;;;31.70;15.20;;;4.80;53.50;;;;;;5054261;28;20378;-76
2024/02/29 04:45:05;;;;;;;30.17;15.40;;;4.80;52.10;;;;;;5067320;28;20440;-74
2024/02/29 04:47:31;;;;;;;28.65;14.07;;;4.80;51.90;;;;;;5067610;28;20377;-74
2024/02/29 04:49:57;;;;;;;31.03;14.63;;;4.80;52.40;;;;;;5062268;28;20902;-75
2024/02/29 04:52:22;;;;;;;33.03;15.60;;;4.70;52.50;;;;;;5052583;28;20389;-75
2024/02/29 04:54:48;;;;;;;31.67;14.47;;;4.80;52.80;;;;;;5051832;28;20391;-75
2024/02/29 04:57:14;;;;;;;33.03;15.33;;;4.80;51.40;;;;;;5051438;28;20457;-76
2024/02/29 04:59:39;;;;;;;29.83;13.80;;;4.80;51.20;;;;;;5051163;28;20405;-75
2024/02/29 05:02:05;;;;;;;27.13;13.10;;;4.80;50.30;;;;;;5051391;28;20455;-75
2024/02/29 05:04:30;;;;;;;27.33;13.83;;;4.80;50.60;;;;;;5050914;28;20395;-73
2024/02/29 05:06:56;;;;;;;28.40;13.70;;;4.80;50.20;;;;;;5033159;28;20409;-73
2024/02/29 05:09:23;;;;;;;28.50;14.20;;;4.80;49.00;;;;;;5052217;28;20385;-75
2024/02/29 05:11:49;;;;;;;27.80;13.30;;;4.70;49.30;;;;;;5054358;28;20441;-74
2024/02/29 05:14:15;;;;;;;26.92;12.63;;;4.70;50.90;;;;;;5054691;28;20432;-74
2024/02/29 05:16:40;;;;;;;30.98;13.07;;;4.80;49.50;;;;;;5054516;28;20439;-76
2024/02/29 05:19:06;;;;;;;27.73;13.20;;;4.80;48.40;;;;;;5036416;28;20385;-75
2024/02/29 05:21:31;;;;;;;26.00;12.20;;;4.80;46.50;;;;;;5054918;28;20408;-74
2024/02/29 05:23:57;;;;;;;24.33;13.10;;;4.90;47.70;;;;;;5055064;28;20386;-76
2024/02/29 05:26:22;;;;;;;24.80;12.05;;;4.90;46.80;;;;;;5054558;28;20716;-75
2024/02/29 05:28:48;;;;;;;24.75;13.07;;;4.90;45.90;;;;;;5055248;28;20444;-75
2024/02/29 05:31:14;;;;;;;23.08;12.18;;;4.90;46.90;;;;;;5055149;28;20563;-74
2024/02/29 05:33:43;;;;;;;24.10;11.83;;;4.80;45.90;;;;;;5038061;28;20979;-76
2024/02/29 05:36:09;;;;;;;29.97;12.20;;;4.90;46.00;;;;;;5055074;28;20450;-75
2024/02/29 05:38:34;;;;;;;25.83;11.95;;;4.80;45.40;;;;;;5055353;28;20383;-75
2024/02/29 05:41:03;;;;;;;23.33;12.10;;;4.90;45.90;;;;;;5055997;28;20712;-74
2024/02/29 05:43:29;;;;;;;23.98;12.05;;;4.90;44.90;;;;;;5058134;28;20421;-75
2024/02/29 05:45:54;;;;;;;20.80;11.35;;;4.90;45.10;;;;;;5047687;28;20885;-74
2024/02/29 05:48:20;;;;;;;23.20;12.53;;;5.00;44.40;;;;;;5045557;28;20805;-75
2024/02/29 05:50:45;;;;;;;24.48;11.70;;;5.00;43.40;;;;;;5040124;28;20474;-74
2024/02/29 05:53:11;;;;;;;25.80;13.20;;;5.00;43.10;;;;;;5046104;28;20466;-74
2024/02/29 05:55:37;;;;;;;24.20;12.20;;;5.00;42.10;;;;;;5034554;28;20383;-74
2024/02/29 05:58:03;;;;;;;23.42;10.68;;;5.00;41.70;;;;;;5051718;28;20391;-75
2024/02/29 06:00:29;;;;;;;26.00;12.27;;;5.00;41.50;;;;;;5037654;28;20404;-77
2024/02/29 06:02:54;;;;;;;25.60;12.45;;;5.00;42.70;;;;;;5045611;28;20394;-75
2024/02/29 06:05:20;;;;;;;23.33;12.00;;;5.00;41.80;;;;;;5035008;28;20761;-76
2024/02/29 06:07:45;;;;;;;26.52;12.65;;;5.10;41.60;;;;;;5034667;28;20386;-76
2024/02/29 06:10:11;;;;;;;28.05;13.30;;;5.10;42.60;;;;;;5036126;28;20434;-75
2024/02/29 06:12:37;;;;;;;26.27;12.00;;;5.10;41.10;;;;;;5026851;28;20415;-75
2024/02/29 06:15:06;;;;;;;27.47;13.23;;;5.10;41.30;;;;;;5020767;28;20407;-76
2024/02/29 06:17:32;;;;;;;26.20;11.88;;;5.00;41.10;;;;;;5052411;28;20797;-74
2024/02/29 06:19:57;;;;;;;26.33;12.73;;;5.00;41.10;;;;;;5036576;28;20522;-74
2024/02/29 06:22:23;;;;;;;30.02;14.68;;;5.00;41.30;;;;;;5035413;28;20468;-76
2024/02/29 06:24:49;;;;;;;32.92;15.55;;;5.10;41.50;;;;;;5047674;28;20383;-75
2024/02/29 06:27:17;;;;;;;26.85;13.82;;;5.10;42.80;;;;;;5037982;28;20385;-76
2024/02/29 06:29:42;;;;;;;30.33;13.77;;;5.10;41.40;;;;;;5032862;28;20398;-74
2024/02/29 06:32:08;;;;;;;28.00;13.30;;;5.10;41.70;;;;;;5032575;28;20760;-76
2024/02/29 06:34:33;;;;;;;32.75;15.45;;;5.10;41.60;;;;;;5032501;28;20387;-74
2024/02/29 06:36:59;;;;;;;27.38;12.77;;;5.30;41.70;;;;;;5032263;28;20738;-75
2024/02/29 06:39:24;;;;;;;31.13;14.43;;;5.30;39.80;;;;;;5032040;28;20387;-76
2024/02/29 06:41:50;;;;;;;30.70;15.23;;;5.40;41.00;;;;;;5033167;28;20383;-73
2024/02/29 06:44:16;;;;;;;28.02;13.13;;;5.40;40.60;;;;;;5032622;28;20407;-76
2024/02/29 06:46:42;;;;;;;28.13;13.35;;;5.40;39.70;;;;;;5033095;28;20935;-75
2024/02/29 06:49:08;;;;;;;33.60;15.53;;;5.40;40.30;;;;;;5015278;28;20894;-75
2024/02/29 06:51:35;;;;;;;33.83;14.50;;;5.40;40.00;;;;;;5032257;28;20881;-75
2024/02/29 06:54:01;;;;;;;30.25;13.93;;;5.60;39.30;;;;;;5032133;28;20398;-74
2024/02/29 06:56:26;;;;;;;31.17;14.50;;;5.60;39.80;;;;;;5032008;28;20391;-74
2024/02/29 06:58:52;;;;;;;32.70;14.87;;;5.70;39.30;;;;;;5032781;28;20440;-75
2024/02/29 07:01:21;;;;;;;30.53;15.10;;;5.80;39.30;;;;;;5014477;28;20407;-75
2024/02/29 07:03:47;;;;;;;28.63;14.18;;;5.80;39.20;;;;;;5032490;28;20379;-76
2024/02/29 07:06:13;;;;;;;31.80;15.85;;;5.90;39.20;;;;;;5032238;28;20392;-77
2024/02/29 07:08:38;;;;;;;31.35;15.48;;;6.00;39.10;;;;;;5014331;28;20391;-74
2024/02/29 07:11:04;;;;;;;36.33;15.38;;;6.10;39.50;;;;;;5032527;28;20433;-74
2024/02/29 07:13:30;;;;;;;29.50;14.30;;;6.20;39.00;;;;;;5032064;28;21081;-76
2024/02/29 07:15:56;;;;;;;34.20;15.75;;;6.20;38.30;;;;;;5031756;28;20793;-76
2024/02/29 07:18:23;;;;;;;34.08;15.98;;;6.30;38.60;;;;;;5032058;28;20391;-74
2024/02/29 07:20:49;;;;;;;29.93;14.80;;;6.50;38.20;;;;;;5032371;28;20407;-75
2024/02/29 07:23:15;;;;;;;32.10;15.60;;;6.60;36.80;;;;;;5032376;28;20393;-75
2024/02/29 07:25:41;;;;;;;30.30;14.30;;;6.70;37.10;;;;;;5031853;28;20852;-75
2024/02/29 07:28:07;;;;;;;29.27;14.33;;;6.80;36.90;;;;;;5032985;28;20371;-75
2024/02/29 07:30:32;;;;;;;30.57;15.10;;;6.90;36.60;;;;;;5032679;28;20383;-76
2024/02/29 07:32:58;;;;;;;31.30;15.17;;;6.90;36.40;;;;;;5037734;28;20390;-75
2024/02/29 07:35:27;;;;;;;43.43;15.60;;;7.00;36.40;;;;;;5018801;28;20398;-76
2024/02/29 07:37:53;;;;;;;33.05;14.93;;;7.20;36.50;;;;;;5037796;28;20398;-76
2024/02/29 07:40:19;;;;;;;29.88;14.55;;;7.30;36.00;;;;;;5023195;28;20913;-76
2024/02/29 07:42:45;;;;;;;29.75;13.80;;;7.40;35.60;;;;;;5024430;28;20437;-76
2024/02/29 07:45:10;;;;;;;33.30;14.88;;;7.40;35.30;;;;;;5043301;28;20396;-76
2024/02/29 07:47:36;;;;;;;31.42;14.48;;;7.50;35.60;;;;;;5035873;28;20391;-75
2024/02/29 07:50:05;;;;;;;28.38;14.57;;;7.60;35.30;;;;;;5034305;28;20406;-75
2024/02/29 07:52:31;;;;;;;25.90;13.52;;;7.70;35.50;;;;;;5035090;28;20395;-77
2024/02/29 07:54:56;;;;;;;26.33;13.35;;;7.70;34.50;;;;;;5034031;28;20391;-76
2024/02/29 07:57:22;;;;;;;28.63;13.80;;;7.80;35.00;;;;;;5034760;28;20806;-75
2024/02/29 07:59:47;;;;;;;27.73;13.70;;;7.90;35.20;;;;;;5039552;28;20532;-75
2024/02/29 08:02:15;;;;;;;29.63;15.05;;;8.00;34.60;;;;;;5040876;28;20409;-77
2024/02/29 08:04:40;;;;;;;25.75;13.50;;;8.10;35.60;;;;;;5040149;28;20391;-77
2024/02/29 08:07:06;;;;;;;28.17;13.20;;;8.00;35.60;;;;;;5035969;28;20861;-75
2024/02/29 08:09:35;;;;;;;27.45;13.65;;;8.10;35.00;;;;;;5034292;28;20398;-76
2024/02/29 08:12:01;;;;;;;30.98;15.27;;;8.10;35.50;;;;;;5034445;28;20865;-77
2024/02/29 08:14:27;;;;;;;27.90;14.03;;;8.20;35.80;;;;;;5033241;28;20557;-75
2024/02/29 08:16:53;;;;;;;26.02;13.93;;;8.30;35.30;;;;;;5031944;28;20409;-76
2024/02/29 08:19:19;;;;;;;29.03;12.17;;;8.40;35.00;;;;;;5031724;28;20391;-76
2024/02/29 08:21:44;;;;;;;27.60;13.43;;;8.30;34.20;;;;;;5032061;28;20403;-76
2024/02/29 08:24:10;;;;;;;29.07;14.20;;;8.30;34.30;;;;;;5031535;28;20383;-76
2024/02/29 08:26:35;;;;;;;29.17;12.77;;;8.40;34.50;;;;;;5031771;28;20423;-77
2024/02/29 08:29:01;;;;;;;26.60;13.65;;;8.40;34.30;;;;;;5033064;28;20441;-75
2024/02/29 08:31:26;;;;;;;29.30;14.45;;;8.50;34.30;;;;;;5038324;28;20418;-76
2024/02/29 08:33:52;;;;;;;26.50;12.85;;;8.70;34.40;;;;;;5039195;28;20586;-76
2024/02/29 08:36:18;;;;;;;27.42;13.57;;;8.70;33.60;;;;;;5032783;28;20843;-76
2024/02/29 08:38:43;;;;;;;25.05;13.18;;;8.80;33.40;;;;;;5032009;28;20383;-76
2024/02/29 08:41:09;;;;;;;27.38;12.45;;;8.80;33.40;;;;;;5031733;28;20407;-75
2024/02/29 08:43:35;;;;;;;22.33;11.70;;;8.90;33.00;;;;;;5031261;28;20398;-74
2024/02/29 08:46:02;;;;;;;23.33;11.32;;;9.00;32.50;;;;;;5020064;28;20874;-76
2024/02/29 08:48:28;;;;;;;25.10;12.18;;;9.10;31.80;;;;;;5035218;28;20386;-77
2024/02/29 08:50:53;;;;;;;27.60;13.53;;;9.10;31.50;;;;;;5036519;28;20390;-75
2024/02/29 08:53:19;;;;;;;25.10;12.00;;;9.20;32.50;;;;;;5035774;28;20390;-74
2024/02/29 08:55:44;;;;;;;24.03;11.50;;;9.20;31.60;;;;;;5035394;28;20387;-76
2024/02/29 08:58:10;;;;;;;23.33;11.57;;;9.40;31.60;;;;;;5037357;28;20429;-76
2024/02/29 09:00:36;;;;;;;23.00;11.10;;;9.50;31.30;;;;;;5041469;28;20413;-76
2024/02/29 09:03:01;;;;;;;21.60;11.83;;;9.60;30.90;;;;;;5042070;28;20400;-75
2024/02/29 09:05:27;;;;;;;22.13;11.38;;;9.90;30.90;;;;;;5040516;28;20383;-76
2024/02/29 09:07:52;;;;;;;23.00;11.52;;;10.00;29.60;;;;;;5035953;28;20382;-76
2024/02/29 09:10:18;;;;;;;23.48;11.45;;;10.10;29.30;;;;;;5034991;28;20387;-76
2024/02/29 09:12:44;;;;;;;24.50;11.30;;;10.10;30.10;;;;;;5034156;28;20896;-75
2024/02/29 09:15:09;;;;;;;21.02;11.30;;;10.10;28.80;;;;;;5034974;28;20391;-77
2024/02/29 09:17:35;;;;;;;22.13;11.02;;;10.20;28.50;;;;;;5017458;28;20479;-75
2024/02/29 09:20:00;;;;;;;18.80;10.52;;;10.10;27.90;;;;;;5035188;28;20904;-76
2024/02/29 09:22:26;;;;;;;30.80;13.47;;;10.10;27.70;;;;;;5039579;28;20399;-75
2024/02/29 09:24:52;;;;;;;22.30;11.10;;;10.30;27.10;;;;;;5035533;28;20378;-75
2024/02/29 09:27:17;;;;;;;21.53;10.50;;;10.40;27.40;;;;;;5035963;28;20883;-77
2024/02/29 09:29:43;;;;;;;22.20;10.17;;;10.50;26.70;;;;;;5035879;28;20477;-76
2024/02/29 09:32:08;;;;;;;21.23;10.50;;;10.50;26.30;;;;;;5036377;28;20391;-77
2024/02/29 09:34:37;;;;;;;24.75;10.02;;;10.50;26.80;;;;;;5018302;28;20386;-76
2024/02/29 09:37:06;;;;;;;19.85;10.90;;;10.50;27.00;;;;;;5036159;28;20444;-76
2024/02/29 09:39:32;;;;;;;21.50;10.23;;;10.40;26.80;;;;;;5035254;28;20384;-76
2024/02/29 09:41:58;;;;;;;21.10;9.90;;;10.50;26.60;;;;;;5048210;28;20390;-75
2024/02/29 09:44:24;;;;;;;20.83;10.17;;;10.40;27.10;;;;;;5029667;28;20464;-75
2024/02/29 09:46:50;;;;;;;20.27;9.90;;;10.40;26.40;;;;;;5034267;28;20643;-74
2024/02/29 09:49:17;;;;;;;18.73;9.43;;;10.40;26.80;;;;;;5033962;28;20391;-76
2024/02/29 09:51:46;;;;;;;21.90;10.38;;;10.40;26.80;;;;;;5034940;28;20475;-76
2024/02/29 09:54:16;;;;;;;19.70;9.95;;;10.40;26.90;;;;;;5035760;28;20398;-76
2024/02/29 09:56:42;;;;;;;19.08;9.82;;;10.50;27.20;;;;;;5033027;28;20865;-76
2024/02/29 09:59:12;;;;;;;22.50;9.50;;;10.60;27.20;;;;;;5035679;28;20395;-75
2024/02/29 10:01:38;;;;;;;18.70;9.27;;;10.70;26.50;;;;;;5019028;28;20465;-76
2024/02/29 10:04:05;;;;;;;20.05;10.10;;;10.80;26.30;;;;;;5035674;28;20878;-77
2024/02/29 10:06:31;;;;;;;21.47;10.53;;;10.80;25.60;;;;;;5036497;28;20387;-74
2024/02/29 10:08:56;;;;;;;21.43;9.37;;;10.80;25.80;;;;;;5036852;28;20401;-75
2024/02/29 10:11:30;;;;;;;20.27;9.40;;;10.90;26.10;;;;;;5035364;28;20394;-73
2024/02/29 10:13:57;;;;;;;18.80;9.27;;;11.00;25.20;;;;;;5034582;28;20403;-74
2024/02/29 10:16:22;;;;;;;17.95;10.10;;;11.20;24.80;;;;;;5017989;28;20390;-75
2024/02/29 10:18:49;;;;;;;25.15;10.38;;;11.30;25.00;;;;;;5039862;28;20401;-75
2024/02/29 10:21:15;;;;;;;16.35;9.20;;;11.30;25.40;;;;;;5035798;28;20474;-74
2024/02/29 10:23:42;;;;;;;23.10;10.32;;;11.30;24.70;;;;;;5036743;28;20457;-74
2024/02/29 10:26:08;;;;;;;22.52;9.63;;;11.40;24.70;;;;;;5037476;28;20383;-75
2024/02/29 10:28:34;;;;;;;16.60;8.60;;;11.40;25.10;;;;;;5041348;28;20478;-75
2024/02/29 10:31:01;;;;;;;17.60;9.57;;;11.60;24.70;;;;;;5041246;28;20508;-75
2024/02/29 10:33:27;;;;;;;19.40;10.48;;;11.60;24.60;;;;;;5036308;28;20411;-74
2024/02/29 10:35:53;;;;;;;20.90;9.10;;;11.70;24.90;;;;;;5037713;28;20387;-74
2024/02/29 10:38:21;;;;;;;18.77;9.05;;;11.80;24.50;;;;;;5036453;28;20412;-76
2024/02/29 10:40:49;;;;;;;25.83;9.60;;;11.90;23.40;;;;;;5035504;28;20457;-74
2024/02/29 10:43:17;;;;;;;16.98;9.13;;;12.00;23.40;;;;;;5035740;28;20469;-76
2024/02/29 10:45:46;;;;;;;17.25;8.90;;;12.10;23.40;;;;;;5034799;28;20474;-75
2024/02/29 10:48:16;;;;;;;17.33;9.25;;;12.10;23.20;;;;;;5034916;28;20379;-74
2024/02/29 10:51:06;;;;;;;18.23;9.15;;;12.40;23.10;;;;;;5035386;28;20384;-73
2024/02/29 10:54:05;;;;;;;14.40;8.70;;;12.40;22.60;;;;;;5036877;28;20387;-75
2024/02/29 10:56:32;;;;;;;18.73;10.13;;;12.30;22.70;;;;;;5037630;28;20383;-75
2024/02/29 10:59:10;;;;;;;15.63;8.27;;;12.30;23.20;;;;;;5034627;28;20731;-74
2024/02/29 11:01:37;;;;;;;17.27;8.60;;;12.30;23.20;;;;;;5037225;28;20406;-75
2024/02/29 11:04:04;;;;;;;15.75;8.30;;;12.30;23.10;;;;;;5050310;28;20379;-75
2024/02/29 11:06:56;;;;;;;19.15;9.00;;;12.30;22.30;;;;;;5054725;28;20486;-76
2024/02/29 11:09:24;;;;;;;16.05;8.40;;;12.50;23.00;;;;;;5052967;28;20379;-77
2024/02/29 11:12:11;;;;;;;21.58;8.65;;;12.40;23.00;;;;;;5054680;28;20375;-77
2024/02/29 11:14:37;;;;;;;18.25;8.10;;;12.40;23.20;;;;;;5055176;28;20415;-76
2024/02/29 11:17:06;;;;;;;15.52;8.93;;;12.40;22.80;;;;;;5037953;28;20427;-75
2024/02/29 11:19:32;;;;;;;19.70;8.27;;;12.50;22.70;;;;;;5054761;28;20490;-73
2024/02/29 11:22:09;;;;;;;14.85;8.60;;;12.50;23.00;;;;;;5055621;28;20469;-75
2024/02/29 11:24:39;;;;;;;16.13;8.38;;;12.50;23.30;;;;;;5055625;28;20417;-77
2024/02/29 11:27:12;;;;;;;16.35;8.70;;;12.40;23.50;;;;;;5055397;28;20394;-75
2024/02/29 11:29:39;;;;;;;15.32;8.15;;;12.30;23.30;;;;;;5055676;28;20432;-74
2024/02/29 11:32:05;;;;;;;16.88;7.70;;;12.40;22.80;;;;;;5055597;28;20385;-75
2024/02/29 11:34:31;;;;;;;18.48;7.78;;;12.40;22.80;;;;;;5055236;28;20402;-74
2024/02/29 11:36:57;;;;;;;13.95;7.88;;;12.50;22.70;;;;;;5055752;28;20395;-75
2024/02/29 11:39:24;;;;;;;17.27;8.50;;;12.50;22.50;;;;;;5038090;28;20406;-75
2024/02/29 11:42:22;;;;;;;13.15;7.47;;;12.70;22.60;;;;;;5054052;28;20407;-75
2024/02/29 11:44:48;;;;;;;14.10;7.60;;;12.80;22.30;;;;;;5055316;28;20417;-73
2024/02/29 11:47:13;;;;;;;12.93;7.63;;;12.90;22.60;;;;;;5055960;28;20390;-74
2024/02/29 11:49:39;;;;;;;15.87;8.00;;;12.90;22.40;;;;;;5055774;28;20463;-75
2024/02/29 11:52:04;;;;;;;14.73;7.70;;;12.90;22.10;;;;;;5035871;28;20402;-75
2024/02/29 11:54:33;;;;;;;14.82;7.80;;;13.00;22.40;;;;;;5034391;28;20391;-76
2024/02/29 11:56:59;;;;;;;14.07;7.90;;;13.30;21.50;;;;;;5034020;28;20387;-76
2024/02/29 11:59:26;;;;;;;15.13;7.60;;;13.20;21.50;;;;;;5035118;28;20908;-76
2024/02/29 12:01:52;;;;;;;15.80;8.05;;;13.10;22.20;;;;;;5034136;28;20399;-76
2024/02/29 12:04:18;;;;;;;15.00;7.50;;;13.20;21.70;;;;;;5032929;28;20383;-75
2024/02/29 12:06:46;;;;;;;15.23;8.13;;;13.40;21.10;;;;;;5035107;28;20853;-75
2024/02/29 12:09:13;;;;;;;15.63;7.57;;;13.40;21.10;;;;;;5033895;28;20418;-75
2024/02/29 12:11:43;;;;;;;13.95;7.90;;;13.50;21.30;;;;;;5034815;28;20383;-76
2024/02/29 12:14:09;;;;;;;13.43;7.70;;;13.50;21.10;;;;;;5034794;28;20430;-75
2024/02/29 12:16:37;;;;;;;24.23;7.40;;;13.50;20.50;;;;;;5034181;28;20394;-75
2024/02/29 12:19:05;;;;;;;13.40;7.60;;;13.50;20.30;;;;;;5032709;28;20390;-74
2024/02/29 12:21:34;;;;;;;12.05;7.30;;;13.40;20.60;;;;;;5034704;28;20453;-76
2024/02/29 12:24:00;;;;;;;15.23;7.90;;;13.30;20.30;;;;;;5035049;28;20385;-77
2024/02/29 12:26:26;;;;;;;14.82;6.28;;;13.50;20.50;;;;;;5033717;28;20471;-76
2024/02/29 12:28:52;;;;;;;12.07;7.13;;;13.50;19.90;;;;;;5035320;28;20405;-76
2024/02/29 12:31:19;;;;;;;16.90;7.83;;;13.50;20.00;;;;;;5034824;28;20466;-78